Aeroporto :
LOGIN :

Iscrizione | Disclaimer

   EN    FR    IT 

 










Sommario :    VFR   VFR Marginale   IFR   IFR Intensivo   IFR Molto Intensivo
Visibilità : 
Base nubi : 
>= 8 km
>= 3000ft
5 / 8 km
1000 / 3000 ft
1500m / 5 km
500 / 1000 ft
800 / 1500m
200 / 500 ft
< 800m
< 200 ft
Simboli :   Temporali  Nebbia  Neve Forte  Precipitazioni Forti  Vento > 20 kt
SIGMETs :   Varie  Temporali  Ghiacco  Turbolenza  Onda orograficha  Ceneri Vulcaniche






- Altitudine del aeroporto : 124 ft
- Codice IATA : RNS


LFRN - Rennes

ULTIMO METAR :
  • 092000Z AUTO 24003KT 9999 SCT040 05/03 Q1027

METARs OBSOLETI :
  • 091930Z AUTO VRB02KT CAVOK 05/03 Q1027
  • 091900Z AUTO 26004KT CAVOK 06/03 Q1026
  • 091830Z AUTO 28007KT 9999 NSC 05/02 Q1026
  • 091800Z AUTO 29006KT 9999 SCT048 06/02 Q1025 NOSIG
  • 091730Z AUTO 29007KT CAVOK 07/03 Q1025 NOSIG

TAF TAF LFRN
Valido dal 09 a 18 ore il 10 a 18 ore UTC


091700Z 0918/1018 32010KT 9999 SCT030
BECMG 0918/0920 VRB05KT
TEMPO 0923/1007 3000 BR
PROB40
TEMPO 1000/1006 0500 FG
BECMG 1006/1008 17010KT
TEMPO 1010/1018 5000 RA BKN012
BECMG 1013/1015 20015G25KT
ATIS : +33 2 99 67 72 50



MetMap, La meteo Aeronautica in un colpo d'occhio ! - Copyright ORBIFLY Dicembre 2007 - Disclaimer

ORBIFLY MET'MAP TEAM :

Programmazione e sviluppo : Alexandra Zaïnal
Concezione : Baudouin d'Aumeries
Aiuto per la programmazione : Marc-Olivier Méhu
Supporto tecnico e logistico : Manuel Goepfert
Aiuto per la traduzione : Arnaldo La Scala

Contatto : metmap@orbifly.com




FONTI E CREDITI :

   NOAA